createdAt,value
2018-09-08T00:00:31.466Z,11.07
2018-09-08T00:03:00.725Z,10.43
2018-09-08T00:05:28.381Z,9.37
2018-09-08T00:07:55.777Z,10.03
2018-09-08T00:10:23.180Z,9.43
2018-09-08T00:12:50.581Z,9.10
2018-09-08T00:15:23.626Z,7.23
2018-09-08T00:17:56.788Z,6.23
2018-09-08T00:20:29.916Z,5.50
2018-09-08T00:23:03.057Z,5.03
2018-09-08T00:25:36.183Z,4.80
2018-09-08T00:28:07.509Z,4.50
2018-09-08T00:30:34.950Z,4.70
2018-09-08T00:33:02.374Z,5.67
2018-09-08T00:35:29.764Z,5.27
2018-09-08T00:37:57.840Z,5.17
2018-09-08T00:40:25.242Z,4.90
2018-09-08T00:42:52.620Z,4.93
2018-09-08T00:45:20.190Z,4.57
2018-09-08T00:47:47.687Z,4.60
2018-09-08T00:50:15.103Z,4.67
2018-09-08T00:52:42.590Z,4.50
2018-09-08T00:55:10.025Z,4.80
2018-09-08T00:57:37.529Z,4.10
2018-09-08T01:00:04.961Z,4.40
2018-09-08T01:02:32.353Z,4.03
2018-09-08T01:04:59.760Z,4.07
2018-09-08T01:07:29.749Z,3.93
2018-09-08T01:09:58.417Z,3.57
2018-09-08T01:12:26.280Z,3.23
2018-09-08T01:14:53.751Z,2.87
2018-09-08T01:17:21.173Z,2.53
2018-09-08T01:19:48.602Z,2.20
2018-09-08T01:22:16.263Z,2.20
2018-09-08T01:24:43.866Z,2.03
2018-09-08T01:27:11.274Z,2.60
2018-09-08T01:29:38.692Z,1.77
2018-09-08T01:32:06.145Z,2.10
2018-09-08T01:34:33.629Z,1.90
2018-09-08T01:37:01.017Z,1.80
2018-09-08T01:39:28.424Z,2.13
2018-09-08T01:41:55.889Z,1.93
2018-09-08T01:44:23.297Z,2.10
2018-09-08T01:46:50.721Z,2.90
2018-09-08T01:49:18.185Z,2.60
2018-09-08T01:51:45.599Z,2.27
2018-09-08T01:54:13.046Z,2.30
2018-09-08T01:56:41.472Z,1.97
2018-09-08T01:59:08.884Z,2.30
2018-09-08T02:01:36.301Z,2.30
2018-09-08T02:04:03.751Z,2.10
2018-09-08T02:06:31.305Z,2.50
2018-09-08T02:08:58.812Z,2.40
2018-09-08T02:11:26.217Z,2.20
2018-09-08T02:13:53.941Z,2.10
2018-09-08T02:16:21.350Z,2.20
2018-09-08T02:18:48.719Z,2.47
2018-09-08T02:21:16.117Z,2.00
2018-09-08T02:23:43.510Z,2.23
2018-09-08T02:26:10.967Z,2.33
2018-09-08T02:28:38.379Z,2.37
2018-09-08T02:31:05.823Z,4.03
2018-09-08T02:33:33.258Z,2.10
2018-09-08T02:36:00.659Z,2.77
2018-09-08T02:38:28.102Z,3.30
2018-09-08T02:40:55.505Z,3.03
2018-09-08T02:43:22.918Z,2.73
2018-09-08T02:45:50.348Z,2.73
2018-09-08T02:48:17.780Z,2.57
2018-09-08T02:50:44.197Z,2.70
2018-09-08T02:53:11.800Z,2.60
2018-09-08T02:55:38.580Z,3.20
2018-09-08T02:58:05.030Z,3.00
2018-09-08T03:00:31.823Z,3.40
2018-09-08T03:02:58.277Z,4.37
2018-09-08T03:05:24.746Z,3.97
2018-09-08T03:07:51.241Z,9.03
2018-09-08T03:10:18.344Z,9.90
2018-09-08T03:12:44.788Z,10.07
2018-09-08T03:15:11.370Z,12.10
2018-09-08T03:17:37.776Z,3.67
2018-09-08T03:20:04.180Z,5.10
2018-09-08T03:22:31.009Z,5.40
2018-09-08T03:24:57.409Z,4.43
2018-09-08T03:27:23.818Z,4.70
2018-09-08T03:29:50.299Z,4.37
2018-09-08T03:32:16.707Z,4.00
2018-09-08T03:34:43.199Z,3.23
2018-09-08T03:37:09.984Z,9.20
2018-09-08T03:39:36.393Z,11.10
2018-09-08T03:42:02.792Z,4.67
2018-09-08T03:44:29.254Z,6.03
2018-09-08T03:46:55.662Z,4.20
2018-09-08T03:49:22.182Z,5.43
2018-09-08T03:51:48.621Z,7.13
2018-09-08T03:54:15.038Z,8.97
2018-09-08T03:56:41.493Z,7.03
2018-09-08T03:59:07.986Z,7.93
2018-09-08T04:01:34.357Z,12.67
2018-09-08T04:04:01.760Z,5.07
2018-09-08T04:06:29.188Z,6.80
2018-09-08T04:08:56.616Z,12.97
2018-09-08T04:11:24.172Z,9.13
2018-09-08T04:13:51.543Z,11.13
2018-09-08T04:16:18.978Z,12.40
2018-09-08T04:18:46.377Z,7.93
2018-09-08T04:21:13.798Z,2.63
2018-09-08T04:23:41.204Z,8.97
2018-09-08T04:26:08.773Z,4.07
2018-09-08T04:28:36.183Z,3.57
2018-09-08T04:31:04.183Z,3.87
2018-09-08T04:33:32.079Z,4.80
2018-09-08T04:35:59.813Z,3.30
2018-09-08T04:38:27.254Z,6.33
2018-09-08T04:40:54.658Z,3.40
2018-09-08T04:43:22.082Z,3.33
2018-09-08T04:45:49.518Z,4.60
2018-09-08T04:48:16.939Z,4.70
2018-09-08T04:50:44.362Z,5.90
2018-09-08T04:53:11.752Z,4.47
2018-09-08T04:55:39.326Z,4.73
2018-09-08T04:58:06.761Z,7.27
2018-09-08T05:00:34.348Z,3.30
2018-09-08T05:03:01.953Z,3.73
2018-09-08T05:05:29.558Z,3.20
2018-09-08T05:07:56.977Z,4.33
2018-09-08T05:10:24.422Z,6.10
2018-09-08T05:12:51.817Z,5.83
2018-09-08T05:15:19.527Z,9.20
2018-09-08T05:17:46.947Z,4.87
2018-09-08T05:20:14.329Z,8.70
2018-09-08T05:22:41.715Z,5.80
2018-09-08T05:25:09.106Z,4.30
2018-09-08T05:27:37.141Z,3.13
2018-09-08T05:30:04.706Z,4.23
2018-09-08T05:32:32.188Z,3.10
2018-09-08T05:34:59.649Z,4.33
2018-09-08T05:37:27.089Z,5.47
2018-09-08T05:39:54.563Z,14.00
2018-09-08T05:42:21.980Z,4.00
2018-09-08T05:44:49.397Z,3.77
2018-09-08T05:47:16.825Z,5.40
2018-09-08T05:49:44.896Z,3.63
2018-09-08T05:52:12.320Z,3.73
2018-09-08T05:54:39.694Z,3.00
2018-09-08T05:57:07.379Z,3.87
2018-09-08T05:59:34.819Z,2.90
2018-09-08T06:02:02.905Z,3.70
2018-09-08T06:04:30.549Z,3.20
2018-09-08T06:07:00.936Z,3.20
2018-09-08T06:09:28.713Z,3.17
2018-09-08T06:11:56.105Z,3.30
2018-09-08T06:14:23.561Z,3.20
2018-09-08T06:16:50.944Z,3.57
2018-09-08T06:19:18.395Z,3.23
2018-09-08T06:21:45.858Z,2.90
2018-09-08T06:24:13.269Z,3.10
2018-09-08T06:26:40.653Z,2.30
2018-09-08T06:29:08.098Z,2.30
2018-09-08T06:31:35.808Z,2.30
2018-09-08T06:34:03.224Z,2.20
2018-09-08T06:36:30.647Z,2.10
2018-09-08T06:38:58.069Z,1.83
2018-09-08T06:41:25.471Z,1.93
2018-09-08T06:43:52.889Z,1.90
2018-09-08T06:46:20.285Z,1.57
2018-09-08T06:48:47.779Z,1.60
2018-09-08T06:51:15.233Z,1.80
2018-09-08T06:53:42.638Z,1.40
2018-09-08T06:56:10.018Z,1.40
2018-09-08T06:58:37.487Z,1.37
2018-09-08T07:01:05.164Z,1.27
2018-09-08T07:03:32.572Z,1.50
2018-09-08T07:05:59.988Z,1.27
2018-09-08T07:08:27.393Z,1.00
2018-09-08T07:10:54.825Z,1.40
2018-09-08T07:13:22.289Z,1.30
2018-09-08T07:15:49.687Z,1.20
2018-09-08T07:18:17.180Z,1.40
2018-09-08T07:20:44.613Z,1.30
2018-09-08T07:23:11.988Z,1.37
2018-09-08T07:25:39.414Z,1.30
2018-09-08T07:28:06.821Z,1.30
2018-09-08T07:30:34.238Z,1.30
2018-09-08T07:33:01.625Z,1.30
2018-09-08T07:35:29.072Z,1.20
2018-09-08T07:37:56.453Z,1.30
2018-09-08T07:40:23.824Z,1.20
2018-09-08T07:42:51.274Z,1.13
2018-09-08T07:45:18.694Z,1.10
2018-09-08T07:47:46.069Z,1.00
2018-09-08T07:50:13.545Z,1.10
2018-09-08T07:52:40.981Z,1.10
2018-09-08T07:55:08.433Z,1.07
2018-09-08T07:57:35.853Z,1.00
2018-09-08T08:00:03.673Z,1.03
2018-09-08T08:02:31.133Z,1.10
2018-09-08T08:04:58.556Z,1.20
2018-09-08T08:07:25.980Z,1.13
2018-09-08T08:09:53.397Z,1.07
2018-09-08T08:12:20.798Z,1.23
2018-09-08T08:14:48.253Z,1.20
2018-09-08T08:17:15.664Z,1.30
2018-09-08T08:19:43.054Z,1.27
2018-09-08T08:22:10.460Z,1.30
2018-09-08T08:24:37.977Z,0.90
2018-09-08T08:27:05.448Z,1.00
2018-09-08T08:29:32.876Z,1.40
2018-09-08T08:32:00.469Z,1.00
2018-09-08T08:34:27.926Z,1.47
2018-09-08T08:36:55.338Z,1.20
2018-09-08T08:39:22.752Z,1.03
2018-09-08T08:41:50.134Z,1.13
2018-09-08T08:44:17.575Z,1.23
2018-09-08T08:46:45.023Z,1.30
2018-09-08T08:49:12.450Z,0.90
2018-09-08T08:52:50.058Z,1.30
2018-09-08T08:55:17.513Z,1.10
2018-09-08T08:57:44.918Z,1.13
2018-09-08T09:00:12.313Z,1.20
2018-09-08T09:02:39.757Z,1.10
2018-09-08T09:05:07.165Z,1.10
2018-09-08T09:07:34.839Z,1.00
2018-09-08T09:10:02.085Z,1.30
2018-09-08T09:12:29.529Z,1.30
2018-09-08T09:14:57.002Z,1.67
2018-09-08T09:17:24.408Z,1.33
2018-09-08T09:20:03.280Z,1.10
2018-09-08T09:22:42.069Z,1.23
2018-09-08T09:25:09.993Z,1.20
2018-09-08T09:27:44.453Z,1.20
2018-09-08T09:30:12.398Z,1.63
2018-09-08T09:32:39.791Z,1.50
2018-09-08T09:35:08.581Z,1.40
2018-09-08T09:37:36.090Z,1.50
2018-09-08T09:40:03.864Z,1.37
2018-09-08T09:42:31.289Z,1.50
2018-09-08T09:44:58.757Z,1.60
2018-09-08T09:47:26.166Z,1.50
2018-09-08T09:49:54.170Z,1.40
2018-09-08T09:52:21.647Z,1.30
2018-09-08T09:54:49.068Z,1.50
2018-09-08T09:57:16.460Z,1.70
2018-09-08T09:59:43.886Z,1.57
2018-09-08T10:02:44.227Z,1.10
2018-09-08T10:05:13.667Z,1.43
2018-09-08T10:07:41.113Z,1.60
2018-09-08T10:10:10.515Z,1.10
2018-09-08T10:12:38.382Z,1.20
2018-09-08T10:15:06.281Z,1.20
2018-09-08T10:17:33.696Z,1.40
2018-09-08T10:20:01.385Z,1.30
2018-09-08T10:22:28.794Z,0.93
2018-09-08T10:24:56.417Z,1.20
2018-09-08T10:27:23.856Z,1.10
2018-09-08T10:29:52.338Z,0.93
2018-09-08T10:32:19.544Z,1.10
2018-09-08T10:34:47.048Z,1.30
2018-09-08T10:37:14.824Z,1.10
2018-09-08T10:39:42.205Z,1.20
2018-09-08T10:42:09.634Z,1.10
2018-09-08T10:44:37.082Z,1.10
2018-09-08T10:47:04.550Z,1.00
2018-09-08T10:49:31.958Z,1.20
2018-09-08T10:52:20.169Z,0.87
2018-09-08T10:54:47.838Z,1.00
2018-09-08T10:57:15.261Z,1.30
2018-09-08T10:59:42.680Z,1.20
2018-09-08T11:02:10.470Z,1.03
2018-09-08T11:04:37.778Z,1.30
2018-09-08T11:07:05.235Z,1.00
2018-09-08T11:09:32.681Z,1.10
2018-09-08T11:12:00.112Z,1.33
2018-09-08T11:14:27.512Z,1.27
2018-09-08T11:16:54.975Z,1.10
2018-09-08T11:19:22.368Z,1.10
2018-09-08T11:21:49.784Z,1.10
2018-09-08T11:24:17.193Z,1.10
2018-09-08T11:26:44.621Z,1.40
2018-09-08T11:29:12.032Z,1.17
2018-09-08T11:31:39.445Z,1.20
2018-09-08T11:34:06.848Z,1.00
2018-09-08T11:36:34.262Z,1.20
2018-09-08T11:39:01.635Z,1.27
2018-09-08T11:41:29.072Z,0.90
2018-09-08T11:43:56.582Z,1.00
2018-09-08T11:46:24.017Z,1.00
2018-09-08T11:48:51.425Z,1.00
2018-09-08T11:51:18.843Z,1.00
2018-09-08T11:53:46.317Z,1.00
2018-09-08T11:56:13.707Z,1.07
2018-09-08T11:58:41.097Z,0.83
2018-09-08T12:01:08.589Z,0.83
2018-09-08T12:03:35.990Z,1.10
2018-09-08T12:06:03.384Z,1.00
2018-09-08T12:08:30.784Z,1.10
2018-09-08T12:10:58.251Z,0.90
2018-09-08T12:13:25.656Z,1.10
2018-09-08T12:15:53.065Z,1.10
2018-09-08T12:18:20.509Z,0.90
2018-09-08T12:20:47.909Z,0.97
2018-09-08T12:23:15.309Z,0.90
2018-09-08T12:25:42.733Z,0.90
2018-09-08T12:28:10.157Z,0.93
2018-09-08T12:30:37.645Z,0.80
2018-09-08T12:33:05.367Z,1.00
2018-09-08T12:35:32.772Z,1.10
2018-09-08T12:38:00.164Z,1.00
2018-09-08T12:40:27.578Z,0.83
2018-09-08T12:42:54.968Z,1.00
2018-09-08T12:45:22.574Z,0.80
2018-09-08T12:47:49.957Z,0.90
2018-09-08T12:50:17.369Z,0.80
2018-09-08T12:52:44.811Z,0.90
2018-09-08T12:55:12.250Z,0.73
2018-09-08T12:57:39.650Z,0.90
2018-09-08T13:00:07.164Z,0.90
2018-09-08T13:02:34.580Z,1.03
2018-09-08T13:05:01.966Z,0.80
2018-09-08T13:07:29.400Z,0.83
2018-09-08T13:09:56.816Z,1.00
2018-09-08T13:12:24.236Z,0.80
2018-09-08T13:14:51.634Z,1.00
2018-09-08T13:17:19.090Z,1.00
2018-09-08T13:19:46.488Z,0.87
2018-09-08T13:22:13.917Z,1.03
2018-09-08T13:24:41.322Z,0.80
2018-09-08T13:27:08.732Z,0.70
2018-09-08T13:29:36.348Z,1.30
2018-09-08T13:32:03.766Z,0.80
2018-09-08T13:34:31.186Z,0.90
2018-09-08T13:36:58.657Z,0.90
2018-09-08T13:39:26.082Z,1.00
2018-09-08T13:41:53.497Z,0.90
2018-09-08T13:44:20.914Z,0.77
2018-09-08T13:46:48.347Z,0.90
2018-09-08T13:49:15.709Z,0.90
2018-09-08T13:51:43.122Z,0.97
2018-09-08T13:54:10.610Z,0.90
2018-09-08T13:56:38.038Z,1.00
2018-09-08T13:59:05.435Z,0.90
2018-09-08T14:01:33.021Z,1.10
2018-09-08T14:04:00.462Z,1.20
2018-09-08T14:06:27.921Z,1.07
2018-09-08T14:08:55.350Z,0.93
2018-09-08T14:11:22.762Z,1.10
2018-09-08T14:13:50.224Z,0.87
2018-09-08T14:16:17.746Z,0.93
2018-09-08T14:18:45.353Z,0.90
2018-09-08T14:21:12.762Z,1.13
2018-09-08T14:23:40.210Z,0.90
2018-09-08T14:26:07.609Z,0.90
2018-09-08T14:28:35.029Z,1.10
2018-09-08T14:31:02.460Z,0.83
2018-09-08T14:33:29.840Z,0.90
2018-09-08T14:35:57.486Z,1.10
2018-09-08T14:38:24.982Z,1.00
2018-09-08T14:40:52.352Z,1.00
2018-09-08T14:43:19.729Z,1.00
2018-09-08T14:45:47.155Z,0.90
2018-09-08T14:48:14.634Z,1.10
2018-09-08T14:50:42.083Z,1.07
2018-09-08T14:53:09.518Z,1.17
2018-09-08T14:55:36.918Z,1.10
2018-09-08T14:58:04.454Z,1.10
2018-09-08T15:00:31.850Z,1.10
2018-09-08T15:02:59.251Z,1.00
2018-09-08T15:05:26.692Z,1.13
2018-09-08T15:07:54.225Z,1.10
2018-09-08T15:10:21.609Z,0.97
2018-09-08T15:12:49.023Z,1.17
2018-09-08T15:15:16.641Z,1.10
2018-09-08T15:17:44.084Z,1.07
2018-09-08T15:20:11.513Z,1.20
2018-09-08T15:22:38.892Z,1.10
2018-09-08T15:25:06.398Z,1.33
2018-09-08T15:27:33.815Z,1.20
2018-09-08T15:30:01.206Z,1.20
2018-09-08T15:32:28.621Z,1.33
2018-09-08T15:34:56.032Z,1.30
2018-09-08T15:37:23.420Z,1.10
2018-09-08T15:39:50.869Z,1.33
2018-09-08T15:42:18.286Z,1.10
2018-09-08T15:44:45.787Z,1.20
2018-09-08T15:47:13.209Z,1.57
2018-09-08T15:49:40.699Z,1.03
2018-09-08T15:52:08.162Z,1.33
2018-09-08T15:54:35.805Z,1.27
2018-09-08T15:57:03.310Z,1.03
2018-09-08T15:59:30.859Z,1.30
2018-09-08T16:01:58.311Z,1.50
2018-09-08T16:04:25.832Z,1.20
2018-09-08T16:06:53.279Z,1.17
2018-09-08T16:09:20.740Z,1.20
2018-09-08T16:11:48.201Z,1.27
2018-09-08T16:14:15.747Z,1.40
2018-09-08T16:16:43.177Z,1.40
2018-09-08T16:19:10.773Z,1.40
2018-09-08T16:21:38.202Z,1.20
2018-09-08T16:24:05.723Z,1.07
2018-09-08T16:26:33.194Z,1.30
2018-09-08T16:29:00.663Z,1.27
2018-09-08T16:31:29.070Z,1.13
2018-09-08T16:33:56.525Z,1.43
2018-09-08T16:36:24.000Z,1.10
2018-09-08T16:38:51.510Z,1.27
2018-09-08T16:41:18.926Z,1.73
2018-09-08T16:43:46.421Z,1.47
2018-09-08T16:46:13.862Z,1.40
2018-09-08T16:48:41.317Z,1.40
2018-09-08T16:51:08.865Z,1.30
2018-09-08T16:53:36.318Z,1.40
2018-09-08T16:56:03.799Z,1.53
2018-09-08T16:58:31.310Z,1.67
2018-09-08T17:00:59.073Z,1.50
2018-09-08T17:03:26.763Z,1.50
2018-09-08T17:05:54.425Z,1.40
2018-09-08T17:08:21.911Z,1.50
2018-09-08T17:10:49.958Z,1.60
2018-09-08T17:13:17.377Z,1.57
2018-09-08T17:15:45.681Z,1.40
2018-09-08T17:18:13.621Z,1.40
2018-09-08T17:20:41.799Z,1.40
2018-09-08T17:23:09.320Z,1.33
2018-09-08T17:25:36.859Z,1.50
2018-09-08T17:28:04.403Z,1.60
2018-09-08T17:30:31.841Z,1.50
2018-09-08T17:32:59.370Z,1.57
2018-09-08T17:35:26.812Z,1.30
2018-09-08T17:37:54.254Z,1.50
2018-09-08T17:40:21.769Z,1.63
2018-09-08T17:42:49.470Z,1.53
2018-09-08T17:45:16.896Z,1.70
2018-09-08T17:47:44.379Z,1.80
2018-09-08T17:50:11.821Z,1.47
2018-09-08T17:52:39.266Z,1.83
2018-09-08T17:55:06.725Z,1.40
2018-09-08T17:57:34.204Z,1.60
2018-09-08T18:00:01.741Z,1.90
2018-09-08T18:02:29.179Z,1.80
2018-09-08T18:04:56.638Z,1.60
2018-09-08T18:07:24.141Z,2.13
2018-09-08T18:09:51.547Z,1.80
2018-09-08T18:12:19.008Z,1.73
2018-09-08T18:14:46.444Z,2.00
2018-09-08T18:17:13.883Z,1.90
2018-09-08T18:19:41.358Z,1.60
2018-09-08T18:22:09.061Z,2.10
2018-09-08T18:24:36.559Z,1.83
2018-09-08T18:27:04.080Z,2.10
2018-09-08T18:29:31.533Z,1.90
2018-09-08T18:31:59.042Z,1.90
2018-09-08T18:34:27.199Z,1.90
2018-09-08T18:36:54.785Z,1.93
2018-09-08T18:39:22.219Z,2.00
2018-09-08T18:41:49.645Z,2.67
2018-09-08T18:44:17.480Z,2.43
2018-09-08T18:46:45.093Z,2.70
2018-09-08T18:49:12.509Z,2.70
2018-09-08T18:51:39.954Z,2.47
2018-09-08T18:54:07.560Z,2.43
2018-09-08T18:56:35.070Z,2.43
2018-09-08T18:59:03.268Z,3.00
2018-09-08T19:01:30.628Z,2.73
2018-09-08T19:03:58.089Z,2.63
2018-09-08T19:06:25.525Z,2.50
2018-09-08T19:08:52.964Z,2.60
2018-09-08T19:11:20.474Z,2.40
2018-09-08T19:13:47.912Z,2.20
2018-09-08T19:16:15.429Z,2.60
2018-09-08T19:18:42.961Z,2.70
2018-09-08T19:21:10.456Z,2.60
2018-09-08T19:23:37.910Z,2.80
2018-09-08T19:26:05.357Z,2.67
2018-09-08T19:28:32.788Z,2.60
2018-09-08T19:31:00.274Z,2.47
2018-09-08T19:33:27.701Z,2.40
2018-09-08T19:35:55.112Z,2.70
2018-09-08T19:38:22.503Z,3.07
2018-09-08T19:40:49.917Z,2.63
2018-09-08T19:43:17.335Z,2.90
2018-09-08T19:45:44.749Z,2.67
2018-09-08T19:48:14.880Z,3.20
2018-09-08T19:50:42.325Z,3.60
2018-09-08T19:53:15.423Z,2.53
2018-09-08T19:55:42.873Z,2.90
2018-09-08T19:59:14.701Z,2.87
2018-09-08T20:01:42.125Z,2.57
2018-09-08T20:04:09.503Z,2.50
2018-09-08T20:06:36.953Z,2.60
2018-09-08T20:09:05.485Z,2.87
2018-09-08T20:11:32.873Z,2.50
2018-09-08T20:14:00.298Z,2.63
2018-09-08T20:16:27.713Z,3.07
2018-09-08T20:18:55.101Z,2.90
2018-09-08T20:21:22.590Z,3.40
2018-09-08T20:23:49.981Z,2.80
2018-09-08T20:26:17.370Z,2.83
2018-09-08T20:28:44.847Z,3.17
2018-09-08T20:31:12.232Z,3.00
2018-09-08T20:33:39.616Z,3.10
2018-09-08T20:36:07.077Z,2.83
2018-09-08T20:38:34.534Z,3.00
2018-09-08T20:41:01.936Z,2.93
2018-09-08T20:43:29.333Z,3.00
2018-09-08T20:45:56.801Z,3.30
2018-09-08T20:48:24.219Z,3.40
2018-09-08T20:50:51.600Z,3.63
2018-09-08T20:53:19.071Z,4.00
2018-09-08T20:55:46.471Z,4.07
2018-09-08T20:58:13.871Z,3.80
2018-09-08T21:00:41.292Z,3.50
2018-09-08T21:03:08.695Z,3.73
2018-09-08T21:05:36.181Z,3.20
2018-09-08T21:08:03.645Z,3.27
2018-09-08T21:10:31.061Z,3.10
2018-09-08T21:12:58.503Z,3.00
2018-09-08T21:15:25.896Z,3.00
2018-09-08T21:17:53.315Z,2.90
2018-09-08T21:20:20.778Z,2.77
2018-09-08T21:22:48.189Z,3.03
2018-09-08T21:25:15.646Z,3.20
2018-09-08T21:27:43.063Z,2.60
2018-09-08T21:30:10.468Z,2.70
2018-09-08T21:32:37.909Z,2.70
2018-09-08T21:35:05.429Z,2.90
2018-09-08T21:37:32.888Z,2.57
2018-09-08T21:40:00.267Z,3.03
2018-09-08T21:42:28.185Z,2.80
2018-09-08T21:44:55.580Z,2.80
2018-09-08T21:47:22.981Z,2.70
2018-09-08T21:49:50.425Z,2.70
2018-09-08T21:52:17.804Z,2.47
2018-09-08T21:54:45.205Z,2.47
2018-09-08T21:57:12.662Z,2.77
2018-09-08T21:59:40.057Z,2.70
2018-09-08T22:02:07.467Z,2.70
2018-09-08T22:04:34.894Z,3.63
2018-09-08T22:07:02.288Z,3.30
2018-09-08T22:09:29.737Z,4.30
2018-09-08T22:11:57.139Z,2.83
2018-09-08T22:14:24.644Z,4.67
2018-09-08T22:16:52.025Z,6.77
2018-09-08T22:19:19.407Z,3.97
2018-09-08T22:21:46.861Z,3.80
2018-09-08T22:24:14.320Z,4.33
2018-09-08T22:26:42.066Z,4.27
2018-09-08T22:29:09.461Z,3.60
2018-09-08T22:31:36.916Z,3.70
2018-09-08T22:34:04.327Z,3.43
2018-09-08T22:36:31.732Z,4.33
2018-09-08T22:38:59.223Z,4.40
2018-09-08T22:41:26.609Z,5.10
2018-09-08T22:43:54.009Z,15.73
2018-09-08T22:46:21.416Z,13.50
2018-09-08T22:48:48.805Z,7.37
2018-09-08T22:51:16.251Z,8.70
2018-09-08T22:53:43.680Z,5.97
2018-09-08T22:56:11.086Z,8.70
2018-09-08T22:58:38.525Z,16.53
2018-09-08T23:01:05.950Z,30.87
2018-09-08T23:03:33.475Z,34.87
2018-09-08T23:06:00.884Z,30.30
2018-09-08T23:08:28.445Z,10.97
2018-09-08T23:10:55.894Z,4.50
2018-09-08T23:13:23.297Z,6.70
2018-09-08T23:15:50.710Z,10.50
2018-09-08T23:18:18.153Z,3.87
2018-09-08T23:20:45.549Z,6.77
2018-09-08T23:23:13.044Z,9.80
2018-09-08T23:25:40.430Z,26.07
2018-09-08T23:28:07.938Z,22.97
2018-09-08T23:30:35.385Z,38.20
2018-09-08T23:33:02.806Z,41.07
2018-09-08T23:35:30.185Z,32.27
2018-09-08T23:37:57.581Z,33.50
2018-09-08T23:40:25.048Z,30.83
2018-09-08T23:42:52.489Z,18.30
2018-09-08T23:45:19.914Z,18.37
2018-09-08T23:47:47.321Z,26.23
2018-09-08T23:50:14.766Z,39.47
2018-09-08T23:52:42.144Z,28.53
2018-09-08T23:55:09.845Z,31.00
2018-09-08T23:57:37.304Z,35.17
